Riviera Beach, Texas
Current Conditions -  °F | °C
As of 8:56 PM on Friday 26 Dec 2014 (Local Time) from KNQI Reporting Station
Clear Clear  
Wind Chill: 19°   Ceiling: Unl
Heat Index: 19°   Visibility: 10mi
Dew Point: 18°   Wind: 9mph
Humidity: 96%   Direction: 140°SE
Pressure: 29.93"   Gusts: NA
Location:  27.3193°N, 97.8839°W
Report Text: KNQI 270256Z AUTO 14008KT 10SM CLR 19/18 A2993 RMK AO2 SLP131 T01890183 51026 $
Loading
Personal Weather Stations






























Interactive Weather Map New forecast layout! Learn more

10-Day Weather Forecast

Advertisements
Track Severe Weather on mobile